sensor_id;sensor_type;location;lat;lon;timestamp;temperature;humidity
56428;DHT22;42331;53.578;9.760;2022-08-21T00:00:13;14.10;99.90
56428;DHT22;42331;53.578;9.760;2022-08-21T00:02:47;14.10;99.90
56428;DHT22;42331;53.578;9.760;2022-08-21T00:05:20;14.00;99.90
56428;DHT22;42331;53.578;9.760;2022-08-21T00:07:51;14.00;99.90
56428;DHT22;42331;53.578;9.760;2022-08-21T00:10:22;13.90;99.90
56428;DHT22;42331;53.578;9.760;2022-08-21T00:12:53;14.00;99.90
56428;DHT22;42331;53.578;9.760;2022-08-21T00:15:28;14.00;99.90
56428;DHT22;42331;53.578;9.760;2022-08-21T00:17:59;14.00;99.90
56428;DHT22;42331;53.578;9.760;2022-08-21T00:20:31;14.00;99.90
56428;DHT22;42331;53.578;9.760;2022-08-21T00:23:03;14.00;99.90
56428;DHT22;42331;53.578;9.760;2022-08-21T00:25:34;14.00;99.90
56428;DHT22;42331;53.578;9.760;2022-08-21T00:28:05;14.00;99.90
56428;DHT22;42331;53.578;9.760;2022-08-21T00:30:38;14.00;99.90
56428;DHT22;42331;53.578;9.760;2022-08-21T00:33:09;13.90;99.90
56428;DHT22;42331;53.578;9.760;2022-08-21T00:35:41;13.90;99.90
56428;DHT22;42331;53.578;9.760;2022-08-21T00:38:12;13.90;99.90
56428;DHT22;42331;53.578;9.760;2022-08-21T00:40:47;13.90;99.90
56428;DHT22;42331;53.578;9.760;2022-08-21T00:43:21;13.90;99.90
56428;DHT22;42331;53.578;9.760;2022-08-21T00:45:52;13.80;99.90
56428;DHT22;42331;53.578;9.760;2022-08-21T00:48:25;13.80;99.90
56428;DHT22;42331;53.578;9.760;2022-08-21T00:53:29;13.90;99.90
56428;DHT22;42331;53.578;9.760;2022-08-21T00:56:02;13.80;99.90
56428;DHT22;42331;53.578;9.760;2022-08-21T00:58:34;13.90;99.90
56428;DHT22;42331;53.578;9.760;2022-08-21T01:01:07;13.80;99.90
56428;DHT22;42331;53.578;9.760;2022-08-21T01:03:38;13.80;99.90
56428;DHT22;42331;53.578;9.760;2022-08-21T01:06:09;13.80;99.90
56428;DHT22;42331;53.578;9.760;2022-08-21T01:08:40;13.80;99.90
56428;DHT22;42331;53.578;9.760;2022-08-21T01:11:12;13.80;99.90
56428;DHT22;42331;53.578;9.760;2022-08-21T01:13:43;13.80;99.90
56428;DHT22;42331;53.578;9.760;2022-08-21T01:16:19;13.80;99.90
56428;DHT22;42331;53.578;9.760;2022-08-21T01:18:51;13.90;99.90
56428;DHT22;42331;53.578;9.760;2022-08-21T01:21:25;13.90;99.90
56428;DHT22;42331;53.578;9.760;2022-08-21T01:23:57;13.90;99.90
56428;DHT22;42331;53.578;9.760;2022-08-21T01:26:30;13.90;99.90
56428;DHT22;42331;53.578;9.760;2022-08-21T01:29:05;13.90;99.90
56428;DHT22;42331;53.578;9.760;2022-08-21T01:31:38;13.90;99.90
56428;DHT22;42331;53.578;9.760;2022-08-21T01:34:09;14.00;99.90
56428;DHT22;42331;53.578;9.760;2022-08-21T01:36:40;14.00;99.90
56428;DHT22;42331;53.578;9.760;2022-08-21T01:39:11;14.00;99.90
56428;DHT22;42331;53.578;9.760;2022-08-21T01:41:43;14.00;99.90
56428;DHT22;42331;53.578;9.760;2022-08-21T01:44:13;14.00;99.90
56428;DHT22;42331;53.578;9.760;2022-08-21T01:46:44;14.00;99.90
56428;DHT22;42331;53.578;9.760;2022-08-21T01:49:15;14.10;99.90
56428;DHT22;42331;53.578;9.760;2022-08-21T01:51:46;14.00;99.90
56428;DHT22;42331;53.578;9.760;2022-08-21T01:54:17;14.00;99.90
56428;DHT22;42331;53.578;9.760;2022-08-21T01:56:50;13.90;99.90
56428;DHT22;42331;53.578;9.760;2022-08-21T01:59:22;13.90;99.90
56428;DHT22;42331;53.578;9.760;2022-08-21T02:01:53;13.90;99.90
56428;DHT22;42331;53.578;9.760;2022-08-21T02:04:27;13.90;99.90
56428;DHT22;42331;53.578;9.760;2022-08-21T02:06:57;13.90;99.90
56428;DHT22;42331;53.578;9.760;2022-08-21T02:09:29;13.90;99.90
56428;DHT22;42331;53.578;9.760;2022-08-21T02:12:00;13.90;99.90
56428;DHT22;42331;53.578;9.760;2022-08-21T02:14:31;13.90;99.90
56428;DHT22;42331;53.578;9.760;2022-08-21T02:17:01;13.80;99.90
56428;DHT22;42331;53.578;9.760;2022-08-21T02:19:32;13.80;99.90
56428;DHT22;42331;53.578;9.760;2022-08-21T02:22:03;13.80;99.90
56428;DHT22;42331;53.578;9.760;2022-08-21T02:24:34;13.80;99.90
56428;DHT22;42331;53.578;9.760;2022-08-21T02:27:05;13.80;99.90
56428;DHT22;42331;53.578;9.760;2022-08-21T02:29:36;13.90;99.90
56428;DHT22;42331;53.578;9.760;2022-08-21T02:32:07;13.80;99.90
56428;DHT22;42331;53.578;9.760;2022-08-21T02:34:37;13.90;99.90
56428;DHT22;42331;53.578;9.760;2022-08-21T02:37:08;13.90;99.90
56428;DHT22;42331;53.578;9.760;2022-08-21T02:39:39;13.90;99.90
56428;DHT22;42331;53.578;9.760;2022-08-21T02:42:10;13.80;99.90
56428;DHT22;42331;53.578;9.760;2022-08-21T02:44:40;13.80;99.90
56428;DHT22;42331;53.578;9.760;2022-08-21T02:47:11;13.80;99.90
56428;DHT22;42331;53.578;9.760;2022-08-21T02:49:42;13.80;99.90
56428;DHT22;42331;53.578;9.760;2022-08-21T02:52:13;13.80;99.90
56428;DHT22;42331;53.578;9.760;2022-08-21T02:54:44;13.90;99.90
56428;DHT22;42331;53.578;9.760;2022-08-21T02:57:16;13.90;99.90
56428;DHT22;42331;53.578;9.760;2022-08-21T02:59:46;13.90;99.90
56428;DHT22;42331;53.578;9.760;2022-08-21T03:02:17;13.90;99.90
56428;DHT22;42331;53.578;9.760;2022-08-21T03:04:48;13.90;99.90
56428;DHT22;42331;53.578;9.760;2022-08-21T03:07:19;13.90;99.90
56428;DHT22;42331;53.578;9.760;2022-08-21T03:09:49;13.90;99.90
56428;DHT22;42331;53.578;9.760;2022-08-21T03:12:20;14.00;99.90
56428;DHT22;42331;53.578;9.760;2022-08-21T03:14:51;13.90;99.90
56428;DHT22;42331;53.578;9.760;2022-08-21T03:17:21;14.00;99.90
56428;DHT22;42331;53.578;9.760;2022-08-21T03:19:52;14.00;99.90
56428;DHT22;42331;53.578;9.760;2022-08-21T03:22:23;14.00;99.90
56428;DHT22;42331;53.578;9.760;2022-08-21T03:24:54;14.00;99.90
56428;DHT22;42331;53.578;9.760;2022-08-21T03:27:25;14.00;99.90
56428;DHT22;42331;53.578;9.760;2022-08-21T03:29:57;14.00;99.90
56428;DHT22;42331;53.578;9.760;2022-08-21T03:32:28;14.00;99.90
56428;DHT22;42331;53.578;9.760;2022-08-21T03:34:59;13.90;99.90
56428;DHT22;42331;53.578;9.760;2022-08-21T03:37:30;14.00;99.90
56428;DHT22;42331;53.578;9.760;2022-08-21T03:40:12;13.90;99.90
56428;DHT22;42331;53.578;9.760;2022-08-21T03:42:44;13.90;99.90
56428;DHT22;42331;53.578;9.760;2022-08-21T03:45:18;13.90;99.90
56428;DHT22;42331;53.578;9.760;2022-08-21T03:48:01;13.80;99.90
56428;DHT22;42331;53.578;9.760;2022-08-21T03:50:34;13.80;99.90
56428;DHT22;42331;53.578;9.760;2022-08-21T03:53:06;13.80;99.90
56428;DHT22;42331;53.578;9.760;2022-08-21T03:55:37;13.80;99.90
56428;DHT22;42331;53.578;9.760;2022-08-21T03:58:08;13.80;99.90
56428;DHT22;42331;53.578;9.760;2022-08-21T04:00:38;13.70;99.90
56428;DHT22;42331;53.578;9.760;2022-08-21T04:03:09;13.70;99.90
56428;DHT22;42331;53.578;9.760;2022-08-21T04:05:40;13.80;99.90
56428;DHT22;42331;53.578;9.760;2022-08-21T04:08:11;13.70;99.90
56428;DHT22;42331;53.578;9.760;2022-08-21T04:10:44;13.80;99.90
56428;DHT22;42331;53.578;9.760;2022-08-21T04:13:15;13.70;99.90
56428;DHT22;42331;53.578;9.760;2022-08-21T04:15:47;13.80;99.90
56428;DHT22;42331;53.578;9.760;2022-08-21T04:18:18;13.80;99.90
56428;DHT22;42331;53.578;9.760;2022-08-21T04:20:51;13.80;99.90
56428;DHT22;42331;53.578;9.760;2022-08-21T04:23:23;13.80;99.90
56428;DHT22;42331;53.578;9.760;2022-08-21T04:25:56;13.90;99.90
56428;DHT22;42331;53.578;9.760;2022-08-21T04:28:27;14.00;99.90
56428;DHT22;42331;53.578;9.760;2022-08-21T04:30:58;14.10;99.90
56428;DHT22;42331;53.578;9.760;2022-08-21T04:33:28;14.20;99.90
56428;DHT22;42331;53.578;9.760;2022-08-21T04:35:59;14.40;99.90
56428;DHT22;42331;53.578;9.760;2022-08-21T04:38:30;14.50;99.90
56428;DHT22;42331;53.578;9.760;2022-08-21T04:41:02;14.60;99.90
56428;DHT22;42331;53.578;9.760;2022-08-21T04:43:32;14.70;99.90
56428;DHT22;42331;53.578;9.760;2022-08-21T04:46:03;14.80;99.90
56428;DHT22;42331;53.578;9.760;2022-08-21T04:48:34;14.80;99.90
56428;DHT22;42331;53.578;9.760;2022-08-21T04:51:17;14.90;99.90
56428;DHT22;42331;53.578;9.760;2022-08-21T04:53:56;15.00;99.90
56428;DHT22;42331;53.578;9.760;2022-08-21T04:56:33;15.10;99.90
56428;DHT22;42331;53.578;9.760;2022-08-21T04:59:13;15.20;99.90
56428;DHT22;42331;53.578;9.760;2022-08-21T05:01:47;15.30;99.90
56428;DHT22;42331;53.578;9.760;2022-08-21T05:04:22;15.40;99.90
56428;DHT22;42331;53.578;9.760;2022-08-21T05:06:57;15.40;99.90
56428;DHT22;42331;53.578;9.760;2022-08-21T05:09:30;15.40;99.90
56428;DHT22;42331;53.578;9.760;2022-08-21T05:12:02;15.40;99.90
56428;DHT22;42331;53.578;9.760;2022-08-21T05:14:33;15.50;99.90
56428;DHT22;42331;53.578;9.760;2022-08-21T05:17:04;15.50;99.90
56428;DHT22;42331;53.578;9.760;2022-08-21T05:19:35;15.50;99.90
56428;DHT22;42331;53.578;9.760;2022-08-21T05:22:06;15.50;99.90
56428;DHT22;42331;53.578;9.760;2022-08-21T05:24:37;15.50;99.90
56428;DHT22;42331;53.578;9.760;2022-08-21T05:27:08;15.60;99.90
56428;DHT22;42331;53.578;9.760;2022-08-21T05:29:39;15.60;99.90
56428;DHT22;42331;53.578;9.760;2022-08-21T05:32:11;15.60;99.90
56428;DHT22;42331;53.578;9.760;2022-08-21T05:34:42;15.60;99.90
56428;DHT22;42331;53.578;9.760;2022-08-21T05:37:13;15.70;99.90
56428;DHT22;42331;53.578;9.760;2022-08-21T05:39:43;15.70;99.90
56428;DHT22;42331;53.578;9.760;2022-08-21T05:42:14;15.80;99.90
56428;DHT22;42331;53.578;9.760;2022-08-21T05:44:45;15.80;99.90
56428;DHT22;42331;53.578;9.760;2022-08-21T05:47:16;16.00;99.90
56428;DHT22;42331;53.578;9.760;2022-08-21T05:49:47;16.00;99.90
56428;DHT22;42331;53.578;9.760;2022-08-21T05:52:21;16.00;99.90
56428;DHT22;42331;53.578;9.760;2022-08-21T05:54:52;16.00;99.90
56428;DHT22;42331;53.578;9.760;2022-08-21T05:57:24;16.10;99.90
56428;DHT22;42331;53.578;9.760;2022-08-21T05:59:55;16.10;99.90
56428;DHT22;42331;53.578;9.760;2022-08-21T06:02:26;16.10;99.90
56428;DHT22;42331;53.578;9.760;2022-08-21T06:04:57;16.20;99.90
56428;DHT22;42331;53.578;9.760;2022-08-21T06:07:28;16.20;99.90
56428;DHT22;42331;53.578;9.760;2022-08-21T06:09:59;16.20;99.90
56428;DHT22;42331;53.578;9.760;2022-08-21T06:12:30;16.20;99.90
56428;DHT22;42331;53.578;9.760;2022-08-21T06:15:01;16.10;99.90
56428;DHT22;42331;53.578;9.760;2022-08-21T06:17:31;16.10;99.90
56428;DHT22;42331;53.578;9.760;2022-08-21T06:20:03;16.00;99.90
56428;DHT22;42331;53.578;9.760;2022-08-21T06:22:34;16.00;99.90
56428;DHT22;42331;53.578;9.760;2022-08-21T06:25:05;16.00;99.90
56428;DHT22;42331;53.578;9.760;2022-08-21T06:27:36;16.00;99.90
56428;DHT22;42331;53.578;9.760;2022-08-21T06:30:08;16.00;99.90
56428;DHT22;42331;53.578;9.760;2022-08-21T06:32:39;16.10;99.90
56428;DHT22;42331;53.578;9.760;2022-08-21T06:35:10;16.20;99.90
56428;DHT22;42331;53.578;9.760;2022-08-21T06:37:41;16.40;99.90
56428;DHT22;42331;53.578;9.760;2022-08-21T06:40:12;16.60;99.90
56428;DHT22;42331;53.578;9.760;2022-08-21T06:42:43;16.70;99.90
56428;DHT22;42331;53.578;9.760;2022-08-21T06:45:14;16.90;99.90
56428;DHT22;42331;53.578;9.760;2022-08-21T06:47:44;17.00;99.90
56428;DHT22;42331;53.578;9.760;2022-08-21T06:50:15;17.20;99.90
56428;DHT22;42331;53.578;9.760;2022-08-21T06:52:46;17.30;99.90
56428;DHT22;42331;53.578;9.760;2022-08-21T06:55:16;17.40;99.90
56428;DHT22;42331;53.578;9.760;2022-08-21T06:57:47;17.50;99.90
56428;DHT22;42331;53.578;9.760;2022-08-21T07:00:18;17.60;99.90
56428;DHT22;42331;53.578;9.760;2022-08-21T07:02:49;17.60;99.90
56428;DHT22;42331;53.578;9.760;2022-08-21T07:05:20;17.80;99.90
56428;DHT22;42331;53.578;9.760;2022-08-21T07:07:51;17.90;99.90
56428;DHT22;42331;53.578;9.760;2022-08-21T07:10:21;17.90;99.90
56428;DHT22;42331;53.578;9.760;2022-08-21T07:12:53;18.10;99.90
56428;DHT22;42331;53.578;9.760;2022-08-21T07:15:25;18.20;99.90
56428;DHT22;42331;53.578;9.760;2022-08-21T07:17:56;18.30;99.90
56428;DHT22;42331;53.578;9.760;2022-08-21T07:20:29;18.40;99.90
56428;DHT22;42331;53.578;9.760;2022-08-21T07:23:04;18.40;99.90
56428;DHT22;42331;53.578;9.760;2022-08-21T07:25:36;18.50;99.90
56428;DHT22;42331;53.578;9.760;2022-08-21T07:28:06;18.60;99.90
56428;DHT22;42331;53.578;9.760;2022-08-21T07:30:37;18.60;99.90
56428;DHT22;42331;53.578;9.760;2022-08-21T07:33:08;18.70;99.90
56428;DHT22;42331;53.578;9.760;2022-08-21T07:35:39;18.80;99.90
56428;DHT22;42331;53.578;9.760;2022-08-21T07:38:10;18.90;99.90
56428;DHT22;42331;53.578;9.760;2022-08-21T07:40:40;18.90;99.90
56428;DHT22;42331;53.578;9.760;2022-08-21T07:43:11;19.00;99.90
56428;DHT22;42331;53.578;9.760;2022-08-21T07:45:42;19.00;99.90
56428;DHT22;42331;53.578;9.760;2022-08-21T07:48:13;19.00;99.90
56428;DHT22;42331;53.578;9.760;2022-08-21T07:50:44;19.00;99.90
56428;DHT22;42331;53.578;9.760;2022-08-21T07:53:15;19.10;99.90
56428;DHT22;42331;53.578;9.760;2022-08-21T07:55:46;19.10;99.90
56428;DHT22;42331;53.578;9.760;2022-08-21T07:58:17;19.20;99.90
56428;DHT22;42331;53.578;9.760;2022-08-21T08:00:47;19.30;99.90
56428;DHT22;42331;53.578;9.760;2022-08-21T08:03:18;19.50;99.90
56428;DHT22;42331;53.578;9.760;2022-08-21T08:05:49;19.50;99.90
56428;DHT22;42331;53.578;9.760;2022-08-21T08:08:20;19.60;99.90
56428;DHT22;42331;53.578;9.760;2022-08-21T08:10:52;19.70;99.90
56428;DHT22;42331;53.578;9.760;2022-08-21T08:13:24;19.80;99.90
56428;DHT22;42331;53.578;9.760;2022-08-21T08:15:55;20.00;99.90
56428;DHT22;42331;53.578;9.760;2022-08-21T08:18:26;20.00;99.90
56428;DHT22;42331;53.578;9.760;2022-08-21T08:20:57;20.00;99.90
56428;DHT22;42331;53.578;9.760;2022-08-21T08:23:27;20.20;99.90
56428;DHT22;42331;53.578;9.760;2022-08-21T08:25:59;20.20;99.90
56428;DHT22;42331;53.578;9.760;2022-08-21T08:28:30;20.20;99.90
56428;DHT22;42331;53.578;9.760;2022-08-21T08:31:02;19.90;99.90
56428;DHT22;42331;53.578;9.760;2022-08-21T08:33:33;20.00;99.90
56428;DHT22;42331;53.578;9.760;2022-08-21T08:36:04;20.30;99.90
56428;DHT22;42331;53.578;9.760;2022-08-21T08:38:35;20.40;99.90
56428;DHT22;42331;53.578;9.760;2022-08-21T08:41:13;20.50;99.90
56428;DHT22;42331;53.578;9.760;2022-08-21T08:43:50;20.50;99.90
56428;DHT22;42331;53.578;9.760;2022-08-21T08:46:51;20.40;99.90
56428;DHT22;42331;53.578;9.760;2022-08-21T08:49:47;20.60;99.90
56428;DHT22;42331;53.578;9.760;2022-08-21T08:52:20;20.60;99.90
56428;DHT22;42331;53.578;9.760;2022-08-21T08:55:06;20.70;99.90
56428;DHT22;42331;53.578;9.760;2022-08-21T08:57:41;20.90;99.90
56428;DHT22;42331;53.578;9.760;2022-08-21T09:00:16;21.00;99.90
56428;DHT22;42331;53.578;9.760;2022-08-21T09:02:55;21.10;99.90
56428;DHT22;42331;53.578;9.760;2022-08-21T09:05:43;21.00;99.90
56428;DHT22;42331;53.578;9.760;2022-08-21T09:11:04;21.10;99.90
56428;DHT22;42331;53.578;9.760;2022-08-21T09:19:43;21.20;99.90
56428;DHT22;42331;53.578;9.760;2022-08-21T09:25:19;21.50;99.90
56428;DHT22;42331;53.578;9.760;2022-08-21T09:27:54;21.80;99.90
56428;DHT22;42331;53.578;9.760;2022-08-21T09:30:29;21.60;99.90
56428;DHT22;42331;53.578;9.760;2022-08-21T09:33:03;21.40;99.90
56428;DHT22;42331;53.578;9.760;2022-08-21T09:35:35;21.80;99.90
56428;DHT22;42331;53.578;9.760;2022-08-21T09:38:08;22.00;99.90
56428;DHT22;42331;53.578;9.760;2022-08-21T09:40:45;22.30;99.90
56428;DHT22;42331;53.578;9.760;2022-08-21T09:43:21;22.80;99.90
56428;DHT22;42331;53.578;9.760;2022-08-21T09:46:12;22.80;99.90
56428;DHT22;42331;53.578;9.760;2022-08-21T09:48:58;22.50;99.90
56428;DHT22;42331;53.578;9.760;2022-08-21T09:51:32;22.50;99.90
56428;DHT22;42331;53.578;9.760;2022-08-21T09:54:16;22.90;99.90
56428;DHT22;42331;53.578;9.760;2022-08-21T09:59:46;23.00;99.90
56428;DHT22;42331;53.578;9.760;2022-08-21T10:02:27;23.10;99.90
56428;DHT22;42331;53.578;9.760;2022-08-21T10:05:19;22.70;99.90
56428;DHT22;42331;53.578;9.760;2022-08-21T10:07:51;22.70;99.90
56428;DHT22;42331;53.578;9.760;2022-08-21T10:10:28;22.30;99.90
56428;DHT22;42331;53.578;9.760;2022-08-21T10:19:33;22.60;99.90
56428;DHT22;42331;53.578;9.760;2022-08-21T10:22:40;23.50;99.90
56428;DHT22;42331;53.578;9.760;2022-08-21T10:27:51;25.00;99.90
56428;DHT22;42331;53.578;9.760;2022-08-21T10:30:52;26.10;99.90
56428;DHT22;42331;53.578;9.760;2022-08-21T10:47:34;28.10;99.90
56428;DHT22;42331;53.578;9.760;2022-08-21T10:54:35;28.00;99.90
56428;DHT22;42331;53.578;9.760;2022-08-21T11:00:21;28.50;99.90
56428;DHT22;42331;53.578;9.760;2022-08-21T11:03:01;28.00;99.90
56428;DHT22;42331;53.578;9.760;2022-08-21T11:05:41;27.30;99.90
56428;DHT22;42331;53.578;9.760;2022-08-21T11:08:38;27.90;99.90
56428;DHT22;42331;53.578;9.760;2022-08-21T11:11:34;28.40;99.90
56428;DHT22;42331;53.578;9.760;2022-08-21T11:17:15;28.60;99.90
56428;DHT22;42331;53.578;9.760;2022-08-21T11:20:08;28.80;99.90
56428;DHT22;42331;53.578;9.760;2022-08-21T11:22:49;28.00;99.90
56428;DHT22;42331;53.578;9.760;2022-08-21T11:25:33;27.30;99.90
56428;DHT22;42331;53.578;9.760;2022-08-21T11:28:13;26.00;99.90
56428;DHT22;42331;53.578;9.760;2022-08-21T11:36:39;24.40;99.90
56428;DHT22;42331;53.578;9.760;2022-08-21T11:39:26;24.30;99.90
56428;DHT22;42331;53.578;9.760;2022-08-21T11:50:20;24.30;99.90
56428;DHT22;42331;53.578;9.760;2022-08-21T11:53:09;24.20;99.90
56428;DHT22;42331;53.578;9.760;2022-08-21T11:55:49;23.80;99.90
56428;DHT22;42331;53.578;9.760;2022-08-21T11:58:28;23.50;99.90
56428;DHT22;42331;53.578;9.760;2022-08-21T12:01:05;23.10;99.90
56428;DHT22;42331;53.578;9.760;2022-08-21T12:03:41;23.00;99.90
56428;DHT22;42331;53.578;9.760;2022-08-21T12:06:14;22.90;99.90
56428;DHT22;42331;53.578;9.760;2022-08-21T12:08:46;23.10;99.90
56428;DHT22;42331;53.578;9.760;2022-08-21T12:11:27;23.50;99.90
56428;DHT22;42331;53.578;9.760;2022-08-21T12:16:42;23.80;99.90
56428;DHT22;42331;53.578;9.760;2022-08-21T12:19:28;23.70;99.90
56428;DHT22;42331;53.578;9.760;2022-08-21T12:24:49;23.60;99.90
56428;DHT22;42331;53.578;9.760;2022-08-21T12:27:26;23.70;99.90
56428;DHT22;42331;53.578;9.760;2022-08-21T12:30:05;23.70;99.90
56428;DHT22;42331;53.578;9.760;2022-08-21T12:35:25;23.70;99.90
56428;DHT22;42331;53.578;9.760;2022-08-21T12:38:02;23.60;99.90
56428;DHT22;42331;53.578;9.760;2022-08-21T12:40:59;23.50;99.90
56428;DHT22;42331;53.578;9.760;2022-08-21T12:43:44;23.50;99.90
56428;DHT22;42331;53.578;9.760;2022-08-21T12:46:21;23.20;99.90
56428;DHT22;42331;53.578;9.760;2022-08-21T12:48:57;23.10;99.90
56428;DHT22;42331;53.578;9.760;2022-08-21T12:51:45;23.10;99.90
56428;DHT22;42331;53.578;9.760;2022-08-21T12:54:30;23.00;99.90
56428;DHT22;42331;53.578;9.760;2022-08-21T12:57:05;23.10;99.90
56428;DHT22;42331;53.578;9.760;2022-08-21T12:59:39;23.30;99.90
56428;DHT22;42331;53.578;9.760;2022-08-21T13:02:24;23.50;99.90
56428;DHT22;42331;53.578;9.760;2022-08-21T13:04:56;23.50;99.90
56428;DHT22;42331;53.578;9.760;2022-08-21T13:07:29;23.70;99.90
56428;DHT22;42331;53.578;9.760;2022-08-21T13:10:05;23.70;99.90
56428;DHT22;42331;53.578;9.760;2022-08-21T13:12:37;23.80;99.90
56428;DHT22;42331;53.578;9.760;2022-08-21T13:15:08;23.90;99.90
56428;DHT22;42331;53.578;9.760;2022-08-21T13:17:47;24.00;99.90
56428;DHT22;42331;53.578;9.760;2022-08-21T13:20:23;23.90;99.90
56428;DHT22;42331;53.578;9.760;2022-08-21T13:22:54;23.80;99.90
56428;DHT22;42331;53.578;9.760;2022-08-21T13:25:29;23.60;99.90
56428;DHT22;42331;53.578;9.760;2022-08-21T13:28:05;23.50;99.90
56428;DHT22;42331;53.578;9.760;2022-08-21T13:31:00;23.50;99.90
56428;DHT22;42331;53.578;9.760;2022-08-21T13:33:32;23.50;99.90
56428;DHT22;42331;53.578;9.760;2022-08-21T13:36:18;23.50;99.90
56428;DHT22;42331;53.578;9.760;2022-08-21T13:38:52;23.70;99.90
56428;DHT22;42331;53.578;9.760;2022-08-21T13:41:30;23.60;99.90
56428;DHT22;42331;53.578;9.760;2022-08-21T13:44:04;23.70;99.90
56428;DHT22;42331;53.578;9.760;2022-08-21T13:46:36;23.60;99.90
56428;DHT22;42331;53.578;9.760;2022-08-21T13:49:08;23.70;99.90
56428;DHT22;42331;53.578;9.760;2022-08-21T13:51:40;23.80;99.90
56428;DHT22;42331;53.578;9.760;2022-08-21T13:54:38;24.20;99.90
56428;DHT22;42331;53.578;9.760;2022-08-21T13:57:18;24.10;99.90
56428;DHT22;42331;53.578;9.760;2022-08-21T13:59:50;24.10;99.90
56428;DHT22;42331;53.578;9.760;2022-08-21T14:02:23;24.20;99.90
56428;DHT22;42331;53.578;9.760;2022-08-21T14:04:57;24.20;99.90
56428;DHT22;42331;53.578;9.760;2022-08-21T14:07:30;24.30;99.90
56428;DHT22;42331;53.578;9.760;2022-08-21T14:10:12;24.40;99.90
56428;DHT22;42331;53.578;9.760;2022-08-21T14:12:50;24.30;99.90
56428;DHT22;42331;53.578;9.760;2022-08-21T14:15:28;24.30;99.90
56428;DHT22;42331;53.578;9.760;2022-08-21T14:18:16;24.20;99.90
56428;DHT22;42331;53.578;9.760;2022-08-21T14:20:47;24.10;99.90
56428;DHT22;42331;53.578;9.760;2022-08-21T14:23:25;23.90;99.90
56428;DHT22;42331;53.578;9.760;2022-08-21T14:26:00;23.70;99.90
56428;DHT22;42331;53.578;9.760;2022-08-21T14:28:34;23.60;99.90
56428;DHT22;42331;53.578;9.760;2022-08-21T14:31:14;23.60;99.90
56428;DHT22;42331;53.578;9.760;2022-08-21T14:33:45;23.70;99.90
56428;DHT22;42331;53.578;9.760;2022-08-21T14:36:17;23.60;99.90
56428;DHT22;42331;53.578;9.760;2022-08-21T14:38:48;23.50;99.90
56428;DHT22;42331;53.578;9.760;2022-08-21T14:41:21;23.40;99.90
56428;DHT22;42331;53.578;9.760;2022-08-21T14:43:54;23.20;99.90
56428;DHT22;42331;53.578;9.760;2022-08-21T14:46:28;23.10;99.90
56428;DHT22;42331;53.578;9.760;2022-08-21T14:48:59;23.10;99.90
56428;DHT22;42331;53.578;9.760;2022-08-21T14:51:30;23.20;99.90
56428;DHT22;42331;53.578;9.760;2022-08-21T14:54:01;23.40;99.90
56428;DHT22;42331;53.578;9.760;2022-08-21T14:56:32;23.50;99.90
56428;DHT22;42331;53.578;9.760;2022-08-21T14:59:05;23.50;99.90
56428;DHT22;42331;53.578;9.760;2022-08-21T15:01:38;23.60;99.90
56428;DHT22;42331;53.578;9.760;2022-08-21T15:04:09;23.60;99.90
56428;DHT22;42331;53.578;9.760;2022-08-21T15:06:40;23.50;99.90
56428;DHT22;42331;53.578;9.760;2022-08-21T15:09:10;23.40;99.90
56428;DHT22;42331;53.578;9.760;2022-08-21T15:11:41;23.50;99.90
56428;DHT22;42331;53.578;9.760;2022-08-21T15:14:18;23.60;99.90
56428;DHT22;42331;53.578;9.760;2022-08-21T15:16:50;23.50;99.90
56428;DHT22;42331;53.578;9.760;2022-08-21T15:19:21;23.50;99.90
56428;DHT22;42331;53.578;9.760;2022-08-21T15:21:52;23.50;99.90
56428;DHT22;42331;53.578;9.760;2022-08-21T15:24:23;23.50;99.90
56428;DHT22;42331;53.578;9.760;2022-08-21T15:26:55;23.50;99.90
56428;DHT22;42331;53.578;9.760;2022-08-21T15:29:26;23.40;99.90
56428;DHT22;42331;53.578;9.760;2022-08-21T15:32:14;23.50;99.90
56428;DHT22;42331;53.578;9.760;2022-08-21T15:34:47;23.50;99.90
56428;DHT22;42331;53.578;9.760;2022-08-21T15:37:19;23.40;99.90
56428;DHT22;42331;53.578;9.760;2022-08-21T15:39:50;23.40;99.90
56428;DHT22;42331;53.578;9.760;2022-08-21T15:42:21;23.30;99.90
56428;DHT22;42331;53.578;9.760;2022-08-21T15:44:53;23.30;99.90
56428;DHT22;42331;53.578;9.760;2022-08-21T15:47:31;23.30;99.90
56428;DHT22;42331;53.578;9.760;2022-08-21T15:50:07;23.20;99.90
56428;DHT22;42331;53.578;9.760;2022-08-21T15:52:39;23.10;99.90
56428;DHT22;42331;53.578;9.760;2022-08-21T15:55:11;23.00;99.90
56428;DHT22;42331;53.578;9.760;2022-08-21T15:57:45;22.90;99.90
56428;DHT22;42331;53.578;9.760;2022-08-21T16:00:22;22.80;99.90
56428;DHT22;42331;53.578;9.760;2022-08-21T16:02:56;22.70;99.90
56428;DHT22;42331;53.578;9.760;2022-08-21T16:05:27;22.70;99.90
56428;DHT22;42331;53.578;9.760;2022-08-21T16:07:58;22.70;99.90
56428;DHT22;42331;53.578;9.760;2022-08-21T16:10:29;22.80;99.90
56428;DHT22;42331;53.578;9.760;2022-08-21T16:13:04;22.80;99.90
56428;DHT22;42331;53.578;9.760;2022-08-21T16:15:36;22.70;99.90
56428;DHT22;42331;53.578;9.760;2022-08-21T16:18:07;22.60;99.90
56428;DHT22;42331;53.578;9.760;2022-08-21T16:20:38;22.70;99.90
56428;DHT22;42331;53.578;9.760;2022-08-21T16:23:09;22.60;99.90
56428;DHT22;42331;53.578;9.760;2022-08-21T16:25:41;22.50;99.90
56428;DHT22;42331;53.578;9.760;2022-08-21T16:28:15;22.40;99.90
56428;DHT22;42331;53.578;9.760;2022-08-21T16:30:48;22.30;99.90
56428;DHT22;42331;53.578;9.760;2022-08-21T16:33:29;22.20;99.90
56428;DHT22;42331;53.578;9.760;2022-08-21T16:36:01;22.10;99.90
56428;DHT22;42331;53.578;9.760;2022-08-21T16:38:33;22.10;99.90
56428;DHT22;42331;53.578;9.760;2022-08-21T16:41:09;22.00;99.90
56428;DHT22;42331;53.578;9.760;2022-08-21T16:43:42;22.00;99.90
56428;DHT22;42331;53.578;9.760;2022-08-21T16:46:13;22.00;99.90
56428;DHT22;42331;53.578;9.760;2022-08-21T16:48:45;22.00;99.90
56428;DHT22;42331;53.578;9.760;2022-08-21T16:51:16;22.00;99.90
56428;DHT22;42331;53.578;9.760;2022-08-21T16:53:46;22.00;99.90
56428;DHT22;42331;53.578;9.760;2022-08-21T16:56:17;22.00;99.90
56428;DHT22;42331;53.578;9.760;2022-08-21T16:58:49;22.00;99.90
56428;DHT22;42331;53.578;9.760;2022-08-21T17:01:21;22.00;99.90
56428;DHT22;42331;53.578;9.760;2022-08-21T17:03:54;22.10;99.90
56428;DHT22;42331;53.578;9.760;2022-08-21T17:06:25;22.10;99.90
56428;DHT22;42331;53.578;9.760;2022-08-21T17:08:57;22.10;99.90
56428;DHT22;42331;53.578;9.760;2022-08-21T17:11:29;22.00;99.90
56428;DHT22;42331;53.578;9.760;2022-08-21T17:14:04;22.00;99.90
56428;DHT22;42331;53.578;9.760;2022-08-21T17:16:37;22.00;99.90
56428;DHT22;42331;53.578;9.760;2022-08-21T17:19:08;21.90;99.90
56428;DHT22;42331;53.578;9.760;2022-08-21T17:21:39;21.90;99.90
56428;DHT22;42331;53.578;9.760;2022-08-21T17:24:11;21.80;99.90